sensor_id;sensor_type;location;lat;lon;timestamp;pressure;altitude;pressure_sealevel;temperature;humidity
70011;BME280;59543;37.950;-122.338;2023-03-05T00:00:23;100966.28;;;12.28;53.55
70011;BME280;59543;37.950;-122.338;2023-03-05T00:02:49;100969.66;;;12.12;54.20
70011;BME280;59543;37.950;-122.338;2023-03-05T00:05:15;100961.34;;;12.05;54.59
70011;BME280;59543;37.950;-122.338;2023-03-05T00:07:41;100959.06;;;11.83;54.60
70011;BME280;59543;37.950;-122.338;2023-03-05T00:10:07;100959.97;;;11.74;55.51
70011;BME280;59543;37.950;-122.338;2023-03-05T00:12:33;100955.75;;;11.71;55.66
70011;BME280;59543;37.950;-122.338;2023-03-05T00:14:59;100960.00;;;11.64;55.15
70011;BME280;59543;37.950;-122.338;2023-03-05T00:17:25;100965.34;;;11.56;55.75
70011;BME280;59543;37.950;-122.338;2023-03-05T00:19:50;100962.22;;;11.51;55.29
70011;BME280;59543;37.950;-122.338;2023-03-05T00:22:16;100961.22;;;11.52;54.66
70011;BME280;59543;37.950;-122.338;2023-03-05T00:24:42;100963.59;;;11.27;56.16
70011;BME280;59543;37.950;-122.338;2023-03-05T00:27:08;100969.47;;;11.13;57.02
70011;BME280;59543;37.950;-122.338;2023-03-05T00:29:34;100967.31;;;11.26;57.04
70011;BME280;59543;37.950;-122.338;2023-03-05T00:31:59;100962.75;;;11.27;57.28
70011;BME280;59543;37.950;-122.338;2023-03-05T00:34:25;100954.88;;;11.15;57.09
70011;BME280;59543;37.950;-122.338;2023-03-05T00:36:52;100968.16;;;11.27;56.86
70011;BME280;59543;37.950;-122.338;2023-03-05T00:39:19;100954.03;;;11.15;56.46
70011;BME280;59543;37.950;-122.338;2023-03-05T00:41:45;100954.78;;;11.07;56.00
70011;BME280;59543;37.950;-122.338;2023-03-05T00:44:11;100966.47;;;11.16;56.38
70011;BME280;59543;37.950;-122.338;2023-03-05T00:46:37;100995.75;;;10.91;57.41
70011;BME280;59543;37.950;-122.338;2023-03-05T00:49:04;100982.19;;;10.25;59.21
70011;BME280;59543;37.950;-122.338;2023-03-05T00:51:30;100982.19;;;10.05;60.31
70011;BME280;59543;37.950;-122.338;2023-03-05T00:53:56;100984.72;;;9.97;60.96
70011;BME280;59543;37.950;-122.338;2023-03-05T00:56:22;100983.06;;;9.66;61.65
70011;BME280;59543;37.950;-122.338;2023-03-05T00:58:48;100976.47;;;9.70;61.95
70011;BME280;59543;37.950;-122.338;2023-03-05T01:01:14;100980.38;;;9.56;62.60
70011;BME280;59543;37.950;-122.338;2023-03-05T01:03:40;100979.66;;;9.54;62.64
70011;BME280;59543;37.950;-122.338;2023-03-05T01:06:07;100978.94;;;9.52;62.54
70011;BME280;59543;37.950;-122.338;2023-03-05T01:08:34;100985.81;;;9.75;62.67
70011;BME280;59543;37.950;-122.338;2023-03-05T01:11:00;100976.47;;;9.89;62.33
70011;BME280;59543;37.950;-122.338;2023-03-05T01:13:26;100975.09;;;10.04;61.74
70011;BME280;59543;37.950;-122.338;2023-03-05T01:15:52;100979.22;;;10.18;60.77
70011;BME280;59543;37.950;-122.338;2023-03-05T01:18:18;100966.06;;;10.15;60.38
70011;BME280;59543;37.950;-122.338;2023-03-05T01:20:44;100977.94;;;10.22;60.39
70011;BME280;59543;37.950;-122.338;2023-03-05T01:23:10;100981.06;;;10.37;60.01
70011;BME280;59543;37.950;-122.338;2023-03-05T01:25:36;100972.88;;;10.39;59.29
70011;BME280;59543;37.950;-122.338;2023-03-05T01:28:02;100979.22;;;10.38;58.99
70011;BME280;59543;37.950;-122.338;2023-03-05T01:30:28;100989.03;;;10.39;58.24
70011;BME280;59543;37.950;-122.338;2023-03-05T01:32:54;100999.78;;;10.39;58.51
70011;BME280;59543;37.950;-122.338;2023-03-05T01:35:22;100996.38;;;10.37;57.51
70011;BME280;59543;37.950;-122.338;2023-03-05T01:37:48;100988.88;;;10.30;58.58
70011;BME280;59543;37.950;-122.338;2023-03-05T01:40:16;100986.06;;;10.32;57.65
70011;BME280;59543;37.950;-122.338;2023-03-05T01:42:46;100984.88;;;10.25;57.97
70011;BME280;59543;37.950;-122.338;2023-03-05T01:45:14;100987.47;;;10.26;58.20
70011;BME280;59543;37.950;-122.338;2023-03-05T01:47:40;100989.53;;;10.03;59.58
70011;BME280;59543;37.950;-122.338;2023-03-05T01:50:07;100984.69;;;9.88;59.85
70011;BME280;59543;37.950;-122.338;2023-03-05T01:52:34;100986.84;;;9.94;59.65
70011;BME280;59543;37.950;-122.338;2023-03-05T01:55:03;101002.78;;;9.85;60.42
70011;BME280;59543;37.950;-122.338;2023-03-05T01:57:35;100996.28;;;9.78;61.10
70011;BME280;59543;37.950;-122.338;2023-03-05T02:00:05;100999.53;;;9.82;61.19
70011;BME280;59543;37.950;-122.338;2023-03-05T02:02:32;100998.78;;;9.70;62.03
70011;BME280;59543;37.950;-122.338;2023-03-05T02:05:02;101001.63;;;9.69;62.72
70011;BME280;59543;37.950;-122.338;2023-03-05T02:07:28;100993.72;;;9.77;62.85
70011;BME280;59543;37.950;-122.338;2023-03-05T02:09:55;100997.66;;;9.73;63.40
70011;BME280;59543;37.950;-122.338;2023-03-05T02:12:21;100995.97;;;9.72;63.14
70011;BME280;59543;37.950;-122.338;2023-03-05T02:14:47;100995.34;;;9.49;64.20
70011;BME280;59543;37.950;-122.338;2023-03-05T02:17:15;100986.16;;;9.51;64.41
70011;BME280;59543;37.950;-122.338;2023-03-05T02:19:51;100992.66;;;9.49;64.52
70011;BME280;59543;37.950;-122.338;2023-03-05T02:22:18;100987.81;;;9.43;64.92
70011;BME280;59543;37.950;-122.338;2023-03-05T02:24:44;100991.00;;;9.27;65.37
70011;BME280;59543;37.950;-122.338;2023-03-05T02:27:10;100996.38;;;9.27;65.88
70011;BME280;59543;37.950;-122.338;2023-03-05T02:29:38;100995.78;;;9.23;66.14
70011;BME280;59543;37.950;-122.338;2023-03-05T02:32:05;101001.41;;;9.20;65.75
70011;BME280;59543;37.950;-122.338;2023-03-05T02:34:31;101000.53;;;9.10;65.46
70011;BME280;59543;37.950;-122.338;2023-03-05T02:36:57;100999.69;;;9.09;66.19
70011;BME280;59543;37.950;-122.338;2023-03-05T02:39:22;100995.69;;;9.04;65.78
70011;BME280;59543;37.950;-122.338;2023-03-05T02:41:48;100995.69;;;9.04;66.16
70011;BME280;59543;37.950;-122.338;2023-03-05T02:44:14;100997.44;;;9.14;66.21
70011;BME280;59543;37.950;-122.338;2023-03-05T02:46:40;101006.09;;;9.18;70.34
70011;BME280;59543;37.950;-122.338;2023-03-05T02:49:06;100994.66;;;9.26;71.85
70011;BME280;59543;37.950;-122.338;2023-03-05T02:51:32;101014.44;;;9.25;73.06
70011;BME280;59543;37.950;-122.338;2023-03-05T02:53:57;100999.75;;;9.29;72.81
70011;BME280;59543;37.950;-122.338;2023-03-05T02:56:23;101003.13;;;9.21;73.55
70011;BME280;59543;37.950;-122.338;2023-03-05T02:58:49;101005.09;;;9.19;73.80
70011;BME280;59543;37.950;-122.338;2023-03-05T03:01:15;101009.91;;;9.25;73.28
70011;BME280;59543;37.950;-122.338;2023-03-05T03:03:41;101006.41;;;9.25;73.25
70011;BME280;59543;37.950;-122.338;2023-03-05T03:06:07;101002.31;;;9.30;72.86
70011;BME280;59543;37.950;-122.338;2023-03-05T03:08:33;101007.44;;;9.33;72.46
70011;BME280;59543;37.950;-122.338;2023-03-05T03:11:05;101000.59;;;9.29;73.12
70011;BME280;59543;37.950;-122.338;2023-03-05T03:13:31;101001.28;;;9.22;73.17
70011;BME280;59543;37.950;-122.338;2023-03-05T03:16:01;101007.38;;;9.24;73.06
70011;BME280;59543;37.950;-122.338;2023-03-05T03:18:27;100993.44;;;9.30;72.90
70011;BME280;59543;37.950;-122.338;2023-03-05T03:20:53;100989.06;;;9.38;72.81
70011;BME280;59543;37.950;-122.338;2023-03-05T03:23:19;100989.13;;;9.48;72.06
70011;BME280;59543;37.950;-122.338;2023-03-05T03:25:44;100987.28;;;9.49;71.61
70011;BME280;59543;37.950;-122.338;2023-03-05T03:28:10;100978.31;;;9.38;71.83
70011;BME280;59543;37.950;-122.338;2023-03-05T03:30:36;100987.94;;;9.41;71.81
70011;BME280;59543;37.950;-122.338;2023-03-05T03:33:02;100984.13;;;9.44;72.15
70011;BME280;59543;37.950;-122.338;2023-03-05T03:35:28;100978.59;;;9.35;73.67
70011;BME280;59543;37.950;-122.338;2023-03-05T03:37:53;100988.19;;;9.28;74.71
70011;BME280;59543;37.950;-122.338;2023-03-05T03:40:20;100994.75;;;9.45;74.15
70011;BME280;59543;37.950;-122.338;2023-03-05T03:42:46;101003.78;;;9.44;75.38
70011;BME280;59543;37.950;-122.338;2023-03-05T03:45:12;101003.81;;;9.23;72.42
70011;BME280;59543;37.950;-122.338;2023-03-05T03:47:38;101006.88;;;9.09;71.36
70011;BME280;59543;37.950;-122.338;2023-03-05T03:50:04;101020.75;;;8.93;73.46
70011;BME280;59543;37.950;-122.338;2023-03-05T03:52:30;101016.16;;;8.63;74.24
70011;BME280;59543;37.950;-122.338;2023-03-05T03:54:56;101012.34;;;8.44;74.29
70011;BME280;59543;37.950;-122.338;2023-03-05T03:57:27;101010.78;;;8.42;75.06
70011;BME280;59543;37.950;-122.338;2023-03-05T03:59:53;101021.78;;;8.28;75.30
70011;BME280;59543;37.950;-122.338;2023-03-05T04:02:19;101013.03;;;8.14;76.48
70011;BME280;59543;37.950;-122.338;2023-03-05T04:04:45;101014.81;;;7.93;77.24
70011;BME280;59543;37.950;-122.338;2023-03-05T04:07:11;101009.22;;;7.96;77.69
70011;BME280;59543;37.950;-122.338;2023-03-05T04:09:36;101014.66;;;8.06;78.21
70011;BME280;59543;37.950;-122.338;2023-03-05T04:12:02;101010.28;;;8.05;78.47
70011;BME280;59543;37.950;-122.338;2023-03-05T04:14:28;101017.25;;;7.96;78.80
70011;BME280;59543;37.950;-122.338;2023-03-05T04:16:54;101014.34;;;7.88;79.83
70011;BME280;59543;37.950;-122.338;2023-03-05T04:19:20;101016.81;;;7.68;81.14
70011;BME280;59543;37.950;-122.338;2023-03-05T04:21:46;101013.75;;;7.73;81.44
70011;BME280;59543;37.950;-122.338;2023-03-05T04:24:12;101010.72;;;7.77;81.21
70011;BME280;59543;37.950;-122.338;2023-03-05T04:26:38;101014.00;;;7.70;81.58
70011;BME280;59543;37.950;-122.338;2023-03-05T04:29:03;101016.06;;;7.66;80.54
70011;BME280;59543;37.950;-122.338;2023-03-05T04:31:29;101012.19;;;7.70;80.98
70011;BME280;59543;37.950;-122.338;2023-03-05T04:33:55;101009.28;;;7.62;80.56
70011;BME280;59543;37.950;-122.338;2023-03-05T04:36:21;101010.97;;;7.63;80.73
70011;BME280;59543;37.950;-122.338;2023-03-05T04:38:47;101011.31;;;7.70;79.40
70011;BME280;59543;37.950;-122.338;2023-03-05T04:41:13;101008.44;;;7.50;80.06
70011;BME280;59543;37.950;-122.338;2023-03-05T04:43:38;100999.19;;;7.43;80.25
70011;BME280;59543;37.950;-122.338;2023-03-05T04:46:04;101004.31;;;7.46;79.36
70011;BME280;59543;37.950;-122.338;2023-03-05T04:48:30;101006.59;;;7.40;80.13
70011;BME280;59543;37.950;-122.338;2023-03-05T04:50:56;101005.50;;;7.42;79.63
70011;BME280;59543;37.950;-122.338;2023-03-05T04:53:22;101004.31;;;7.35;79.98
70011;BME280;59543;37.950;-122.338;2023-03-05T04:55:54;101001.63;;;7.35;79.62
70011;BME280;59543;37.950;-122.338;2023-03-05T04:58:21;101004.78;;;7.40;79.07
70011;BME280;59543;37.950;-122.338;2023-03-05T05:00:48;100997.72;;;7.28;79.81
70011;BME280;59543;37.950;-122.338;2023-03-05T05:03:14;101004.41;;;7.33;78.88
70011;BME280;59543;37.950;-122.338;2023-03-05T05:05:40;101005.16;;;7.36;79.05
70011;BME280;59543;37.950;-122.338;2023-03-05T05:08:06;101004.16;;;7.37;79.17
70011;BME280;59543;37.950;-122.338;2023-03-05T05:10:32;101005.28;;;7.34;79.46
70011;BME280;59543;37.950;-122.338;2023-03-05T05:12:58;101001.50;;;7.25;80.18
70011;BME280;59543;37.950;-122.338;2023-03-05T05:15:24;100994.31;;;7.26;80.57
70011;BME280;59543;37.950;-122.338;2023-03-05T05:17:49;100990.44;;;7.30;80.30
70011;BME280;59543;37.950;-122.338;2023-03-05T05:20:16;100988.13;;;7.25;80.81
70011;BME280;59543;37.950;-122.338;2023-03-05T05:22:42;100982.78;;;7.25;80.75
70011;BME280;59543;37.950;-122.338;2023-03-05T05:25:08;100980.34;;;7.11;82.22
70011;BME280;59543;37.950;-122.338;2023-03-05T05:27:34;100977.28;;;7.16;82.39
70011;BME280;59543;37.950;-122.338;2023-03-05T05:30:01;100974.16;;;7.10;83.21
70011;BME280;59543;37.950;-122.338;2023-03-05T05:32:27;100978.03;;;7.29;82.28
70011;BME280;59543;37.950;-122.338;2023-03-05T05:34:57;100973.63;;;7.39;80.83
70011;BME280;59543;37.950;-122.338;2023-03-05T05:37:23;100977.78;;;7.32;81.25
70011;BME280;59543;37.950;-122.338;2023-03-05T05:39:49;100967.44;;;7.39;80.96
70011;BME280;59543;37.950;-122.338;2023-03-05T05:42:16;100964.75;;;7.39;80.56
70011;BME280;59543;37.950;-122.338;2023-03-05T05:44:42;100968.03;;;7.42;80.79
70011;BME280;59543;37.950;-122.338;2023-03-05T05:47:08;100959.06;;;7.43;80.17
70011;BME280;59543;37.950;-122.338;2023-03-05T05:49:34;100961.94;;;7.51;78.06
70011;BME280;59543;37.950;-122.338;2023-03-05T05:52:00;100956.84;;;7.48;77.98
70011;BME280;59543;37.950;-122.338;2023-03-05T05:54:26;100965.34;;;7.53;76.82
70011;BME280;59543;37.950;-122.338;2023-03-05T05:56:52;100961.59;;;7.56;77.66
70011;BME280;59543;37.950;-122.338;2023-03-05T05:59:18;100956.59;;;7.51;76.62
70011;BME280;59543;37.950;-122.338;2023-03-05T06:01:44;100955.63;;;7.52;75.20
70011;BME280;59543;37.950;-122.338;2023-03-05T06:04:10;100943.09;;;7.53;75.74
70011;BME280;59543;37.950;-122.338;2023-03-05T06:06:35;100932.50;;;7.51;74.76
70011;BME280;59543;37.950;-122.338;2023-03-05T06:09:01;100923.72;;;7.61;75.08
70011;BME280;59543;37.950;-122.338;2023-03-05T06:11:27;100928.97;;;7.51;75.16
70011;BME280;59543;37.950;-122.338;2023-03-05T06:13:53;100928.47;;;7.57;74.78
70011;BME280;59543;37.950;-122.338;2023-03-05T06:16:20;100939.16;;;7.68;74.87
70011;BME280;59543;37.950;-122.338;2023-03-05T06:18:48;100937.25;;;7.59;74.97
70011;BME280;59543;37.950;-122.338;2023-03-05T06:21:15;100934.91;;;7.54;75.17
70011;BME280;59543;37.950;-122.338;2023-03-05T06:23:42;100928.38;;;7.59;75.90
70011;BME280;59543;37.950;-122.338;2023-03-05T06:26:09;100930.66;;;7.52;77.46
70011;BME280;59543;37.950;-122.338;2023-03-05T06:28:35;100929.56;;;7.54;78.54
70011;BME280;59543;37.950;-122.338;2023-03-05T06:31:06;100923.63;;;7.51;79.29
70011;BME280;59543;37.950;-122.338;2023-03-05T06:33:32;100913.50;;;7.54;78.91
70011;BME280;59543;37.950;-122.338;2023-03-05T06:35:58;100912.56;;;7.44;79.87
70011;BME280;59543;37.950;-122.338;2023-03-05T06:38:24;100913.41;;;7.56;79.11
70011;BME280;59543;37.950;-122.338;2023-03-05T06:40:50;100913.75;;;7.63;78.26
70011;BME280;59543;37.950;-122.338;2023-03-05T06:43:16;100911.81;;;7.53;78.79
70011;BME280;59543;37.950;-122.338;2023-03-05T06:45:42;100906.69;;;7.62;78.69
70011;BME280;59543;37.950;-122.338;2023-03-05T06:48:08;100902.53;;;7.57;78.55
70011;BME280;59543;37.950;-122.338;2023-03-05T06:50:35;100894.50;;;7.57;78.46
70011;BME280;59543;37.950;-122.338;2023-03-05T06:53:01;100891.59;;;7.61;76.67
70011;BME280;59543;37.950;-122.338;2023-03-05T06:55:27;100892.09;;;7.54;77.63
70011;BME280;59543;37.950;-122.338;2023-03-05T06:57:53;100893.94;;;7.54;77.75
70011;BME280;59543;37.950;-122.338;2023-03-05T07:00:19;100901.34;;;7.62;76.80
70011;BME280;59543;37.950;-122.338;2023-03-05T07:02:45;100891.59;;;7.61;77.08
70011;BME280;59543;37.950;-122.338;2023-03-05T07:05:10;100870.06;;;7.62;78.72
70011;BME280;59543;37.950;-122.338;2023-03-05T07:07:36;100873.09;;;7.57;77.27
70011;BME280;59543;37.950;-122.338;2023-03-05T07:10:03;100874.72;;;7.49;77.59
70011;BME280;59543;37.950;-122.338;2023-03-05T07:12:32;100868.25;;;7.51;77.52
70011;BME280;59543;37.950;-122.338;2023-03-05T07:14:58;100871.25;;;7.58;76.74
70011;BME280;59543;37.950;-122.338;2023-03-05T07:17:25;100862.13;;;7.61;76.83
70011;BME280;59543;37.950;-122.338;2023-03-05T07:19:51;100866.13;;;7.66;77.11
70011;BME280;59543;37.950;-122.338;2023-03-05T07:22:17;100864.72;;;7.51;76.79
70011;BME280;59543;37.950;-122.338;2023-03-05T07:24:43;100865.00;;;7.48;76.99
70011;BME280;59543;37.950;-122.338;2023-03-05T07:27:09;100853.66;;;7.55;76.97
70011;BME280;59543;37.950;-122.338;2023-03-05T07:29:35;100856.44;;;7.54;76.00
70011;BME280;59543;37.950;-122.338;2023-03-05T07:32:01;100856.59;;;7.52;77.04
70011;BME280;59543;37.950;-122.338;2023-03-05T07:34:26;100861.47;;;7.47;77.14
70011;BME280;59543;37.950;-122.338;2023-03-05T07:36:52;100846.34;;;7.57;77.92
70011;BME280;59543;37.950;-122.338;2023-03-05T07:39:18;100843.09;;;7.43;77.70
70011;BME280;59543;37.950;-122.338;2023-03-05T07:41:45;100841.44;;;7.30;79.40
70011;BME280;59543;37.950;-122.338;2023-03-05T07:44:11;100836.69;;;7.34;79.67
70011;BME280;59543;37.950;-122.338;2023-03-05T07:46:36;100826.69;;;7.36;79.09
70011;BME280;59543;37.950;-122.338;2023-03-05T07:49:02;100824.50;;;7.41;79.32
70011;BME280;59543;37.950;-122.338;2023-03-05T07:51:28;100822.81;;;7.40;79.83
70011;BME280;59543;37.950;-122.338;2023-03-05T07:53:55;100824.78;;;7.27;79.82
70011;BME280;59543;37.950;-122.338;2023-03-05T07:56:22;100812.84;;;7.31;79.35
70011;BME280;59543;37.950;-122.338;2023-03-05T07:58:48;100803.13;;;7.30;79.66
70011;BME280;59543;37.950;-122.338;2023-03-05T08:01:14;100801.09;;;7.22;79.26
70011;BME280;59543;37.950;-122.338;2023-03-05T08:03:41;100790.72;;;7.29;78.96
70011;BME280;59543;37.950;-122.338;2023-03-05T08:06:07;100798.16;;;7.25;78.41
70011;BME280;59543;37.950;-122.338;2023-03-05T08:08:34;100779.88;;;7.30;78.25
70011;BME280;59543;37.950;-122.338;2023-03-05T08:11:07;100781.47;;;7.33;78.18
70011;BME280;59543;37.950;-122.338;2023-03-05T08:13:33;100769.16;;;7.42;77.05
70011;BME280;59543;37.950;-122.338;2023-03-05T08:16:02;100772.84;;;7.29;77.34
70011;BME280;59543;37.950;-122.338;2023-03-05T08:18:28;100767.31;;;7.42;76.47
70011;BME280;59543;37.950;-122.338;2023-03-05T08:20:54;100767.47;;;7.41;76.38
70011;BME280;59543;37.950;-122.338;2023-03-05T08:23:20;100771.22;;;7.38;76.51
70011;BME280;59543;37.950;-122.338;2023-03-05T08:25:46;100764.88;;;7.39;76.75
70011;BME280;59543;37.950;-122.338;2023-03-05T08:28:11;100753.59;;;7.36;77.11
70011;BME280;59543;37.950;-122.338;2023-03-05T08:30:39;100758.59;;;7.40;77.84
70011;BME280;59543;37.950;-122.338;2023-03-05T08:33:05;100761.88;;;7.32;78.63
70011;BME280;59543;37.950;-122.338;2023-03-05T08:35:31;100745.72;;;7.34;79.44
70011;BME280;59543;37.950;-122.338;2023-03-05T08:37:56;100721.13;;;7.40;77.91
70011;BME280;59543;37.950;-122.338;2023-03-05T08:40:22;100743.97;;;7.44;78.59
70011;BME280;59543;37.950;-122.338;2023-03-05T08:42:48;100748.22;;;7.47;78.35
70011;BME280;59543;37.950;-122.338;2023-03-05T08:45:16;100733.97;;;7.46;78.73
70011;BME280;59543;37.950;-122.338;2023-03-05T08:47:42;100701.25;;;7.43;79.85
70011;BME280;59543;37.950;-122.338;2023-03-05T08:50:08;100678.34;;;7.50;80.10
70011;BME280;59543;37.950;-122.338;2023-03-05T08:52:34;100702.44;;;7.50;80.59
70011;BME280;59543;37.950;-122.338;2023-03-05T08:54:59;100716.53;;;7.52;79.23
70011;BME280;59543;37.950;-122.338;2023-03-05T08:57:25;100739.97;;;7.60;79.84
70011;BME280;59543;37.950;-122.338;2023-03-05T08:59:51;100737.56;;;7.56;79.07
70011;BME280;59543;37.950;-122.338;2023-03-05T09:02:17;100746.06;;;7.62;79.25
70011;BME280;59543;37.950;-122.338;2023-03-05T09:04:43;100738.34;;;7.68;80.58
70011;BME280;59543;37.950;-122.338;2023-03-05T09:07:09;100763.50;;;7.77;80.89
70011;BME280;59543;37.950;-122.338;2023-03-05T09:09:35;100784.88;;;7.88;81.76
70011;BME280;59543;37.950;-122.338;2023-03-05T09:12:01;100783.63;;;7.92;80.08
70011;BME280;59543;37.950;-122.338;2023-03-05T09:14:27;100803.34;;;7.91;80.41
70011;BME280;59543;37.950;-122.338;2023-03-05T09:16:56;100818.81;;;7.88;81.49
70011;BME280;59543;37.950;-122.338;2023-03-05T09:19:22;100835.28;;;7.83;81.88
70011;BME280;59543;37.950;-122.338;2023-03-05T09:21:48;100889.41;;;7.54;82.56
70011;BME280;59543;37.950;-122.338;2023-03-05T09:24:14;100884.28;;;6.97;80.18
70011;BME280;59543;37.950;-122.338;2023-03-05T09:26:40;100880.53;;;6.66;81.33
70011;BME280;59543;37.950;-122.338;2023-03-05T09:29:07;100889.34;;;6.44;82.73
70011;BME280;59543;37.950;-122.338;2023-03-05T09:31:34;100902.31;;;6.37;83.47
70011;BME280;59543;37.950;-122.338;2023-03-05T09:34:00;100916.47;;;6.15;84.96
70011;BME280;59543;37.950;-122.338;2023-03-05T09:36:27;100912.97;;;6.14;85.32
70011;BME280;59543;37.950;-122.338;2023-03-05T09:38:53;100920.97;;;5.90;85.78
70011;BME280;59543;37.950;-122.338;2023-03-05T09:49:12;100917.03;;;5.83;86.71
70011;BME280;59543;37.950;-122.338;2023-03-05T09:51:40;100904.34;;;5.87;87.04
70011;BME280;59543;37.950;-122.338;2023-03-05T09:54:11;100897.03;;;5.89;86.73
70011;BME280;59543;37.950;-122.338;2023-03-05T09:56:42;100878.91;;;5.94;87.37
70011;BME280;59543;37.950;-122.338;2023-03-05T09:59:16;100873.75;;;5.91;87.35
70011;BME280;59543;37.950;-122.338;2023-03-05T10:01:43;100859.91;;;5.86;88.75
70011;BME280;59543;37.950;-122.338;2023-03-05T10:06:43;100856.56;;;5.95;88.66
70011;BME280;59543;37.950;-122.338;2023-03-05T10:14:14;100890.81;;;6.01;88.80
70011;BME280;59543;37.950;-122.338;2023-03-05T10:16:49;100877.81;;;5.97;89.53
70011;BME280;59543;37.950;-122.338;2023-03-05T10:29:52;100887.19;;;6.13;89.24
70011;BME280;59543;37.950;-122.338;2023-03-05T10:32:25;100890.34;;;6.07;90.43
70011;BME280;59543;37.950;-122.338;2023-03-05T10:42:55;100871.59;;;6.31;90.50
70011;BME280;59543;37.950;-122.338;2023-03-05T10:45:25;100857.16;;;6.34;90.24
70011;BME280;59543;37.950;-122.338;2023-03-05T10:50:40;100873.34;;;6.55;89.40
70011;BME280;59543;37.950;-122.338;2023-03-05T10:53:16;100876.75;;;6.57;89.63
70011;BME280;59543;37.950;-122.338;2023-03-05T10:55:44;100875.25;;;6.53;89.22
70011;BME280;59543;37.950;-122.338;2023-03-05T10:58:14;100872.75;;;6.62;88.88
70011;BME280;59543;37.950;-122.338;2023-03-05T11:00:40;100855.00;;;6.73;88.59
70011;BME280;59543;37.950;-122.338;2023-03-05T11:03:21;100853.44;;;6.59;89.47
70011;BME280;59543;37.950;-122.338;2023-03-05T11:05:49;100852.69;;;6.68;89.04
70011;BME280;59543;37.950;-122.338;2023-03-05T11:08:26;100853.53;;;6.80;88.27
70011;BME280;59543;37.950;-122.338;2023-03-05T11:11:03;100841.38;;;6.87;86.89
70011;BME280;59543;37.950;-122.338;2023-03-05T11:13:29;100838.72;;;6.76;87.22
70011;BME280;59543;37.950;-122.338;2023-03-05T11:15:59;100823.16;;;6.81;86.90
70011;BME280;59543;37.950;-122.338;2023-03-05T11:18:25;100827.88;;;6.88;86.87
70011;BME280;59543;37.950;-122.338;2023-03-05T11:20:51;100837.38;;;6.93;86.68
70011;BME280;59543;37.950;-122.338;2023-03-05T11:23:18;100847.56;;;6.99;87.20
70011;BME280;59543;37.950;-122.338;2023-03-05T11:25:54;100857.28;;;7.00;88.15
70011;BME280;59543;37.950;-122.338;2023-03-05T11:28:40;100852.09;;;6.98;89.02
70011;BME280;59543;37.950;-122.338;2023-03-05T11:34:02;100851.69;;;7.14;88.31
70011;BME280;59543;37.950;-122.338;2023-03-05T11:38:56;100849.84;;;7.15;87.87
70011;BME280;59543;37.950;-122.338;2023-03-05T11:41:28;100860.94;;;7.10;87.58
70011;BME280;59543;37.950;-122.338;2023-03-05T11:43:54;100859.47;;;7.17;86.32
70011;BME280;59543;37.950;-122.338;2023-03-05T11:46:21;100863.97;;;7.17;86.09
70011;BME280;59543;37.950;-122.338;2023-03-05T11:48:47;100859.13;;;7.10;85.63
70011;BME280;59543;37.950;-122.338;2023-03-05T11:51:26;100869.06;;;7.20;84.04
70011;BME280;59543;37.950;-122.338;2023-03-05T11:53:57;100868.09;;;7.21;83.70
70011;BME280;59543;37.950;-122.338;2023-03-05T11:56:29;100855.44;;;7.23;83.60
70011;BME280;59543;37.950;-122.338;2023-03-05T11:58:58;100856.91;;;7.16;82.82
70011;BME280;59543;37.950;-122.338;2023-03-05T12:01:26;100868.09;;;7.21;82.32
70011;BME280;59543;37.950;-122.338;2023-03-05T12:03:53;100855.44;;;7.23;81.87
70011;BME280;59543;37.950;-122.338;2023-03-05T12:08:56;100858.09;;;7.34;77.92
70011;BME280;59543;37.950;-122.338;2023-03-05T12:11:27;100863.31;;;7.36;77.59
70011;BME280;59543;37.950;-122.338;2023-03-05T12:16:45;100880.13;;;7.26;77.76
70011;BME280;59543;37.950;-122.338;2023-03-05T12:21:47;100876.84;;;7.23;76.47
70011;BME280;59543;37.950;-122.338;2023-03-05T12:32:04;100898.00;;;7.37;75.85
70011;BME280;59543;37.950;-122.338;2023-03-05T12:37:12;100906.13;;;7.36;76.40
70011;BME280;59543;37.950;-122.338;2023-03-05T12:39:45;100918.84;;;7.54;76.10
70011;BME280;59543;37.950;-122.338;2023-03-05T12:45:40;100925.31;;;7.52;77.33
70011;BME280;59543;37.950;-122.338;2023-03-05T12:47:44;100935.56;;;7.47;77.94
70011;BME280;59543;37.950;-122.338;2023-03-05T12:52:56;100952.72;;;7.33;78.38
70011;BME280;59543;37.950;-122.338;2023-03-05T12:55:29;100946.75;;;7.29;78.26
70011;BME280;59543;37.950;-122.338;2023-03-05T12:58:00;100958.81;;;7.01;76.96
70011;BME280;59543;37.950;-122.338;2023-03-05T13:00:38;100958.44;;;6.83;76.51
70011;BME280;59543;37.950;-122.338;2023-03-05T13:03:23;100963.53;;;6.75;77.15
70011;BME280;59543;37.950;-122.338;2023-03-05T13:05:52;100972.53;;;6.39;77.59
70011;BME280;59543;37.950;-122.338;2023-03-05T13:10:54;100977.97;;;6.26;76.64
70011;BME280;59543;37.950;-122.338;2023-03-05T13:13:22;100978.66;;;6.17;77.49
70011;BME280;59543;37.950;-122.338;2023-03-05T13:15:48;100983.34;;;6.13;77.71
70011;BME280;59543;37.950;-122.338;2023-03-05T13:18:28;100991.28;;;6.15;78.10
70011;BME280;59543;37.950;-122.338;2023-03-05T13:23:29;101000.13;;;6.15;78.39
70011;BME280;59543;37.950;-122.338;2023-03-05T13:25:58;100993.88;;;6.04;79.90
70011;BME280;59543;37.950;-122.338;2023-03-05T13:28:25;101012.47;;;6.05;79.71
70011;BME280;59543;37.950;-122.338;2023-03-05T13:30:52;101006.94;;;5.95;79.85
70011;BME280;59543;37.950;-122.338;2023-03-05T13:33:21;101015.38;;;6.02;80.08
70011;BME280;59543;37.950;-122.338;2023-03-05T13:35:49;101017.06;;;6.03;79.77
70011;BME280;59543;37.950;-122.338;2023-03-05T13:38:26;101009.31;;;5.87;80.48